Time;durP1;ratioP1;P1;durP2;ratioP2;P2;SDS_P1;SDS_P2;PMS_P1;PMS_P2;Temp;Humidity;BMP_temperature;BMP_pressure;BME280_temperature;BME280_humidity;BME280_pressure;Samples;Min_cycle;Max_cycle;Signal;HPM_P1;HPM_P2
2022/10/09 00:01:17;;;;;;;7.90;4.23;;;;;;;7.25;95.78;102574.19;5052262;28;20024;-34
2022/10/09 00:03:44;;;;;;;8.57;4.32;;;;;;;7.15;95.47;102556.34;5052565;28;20262;-34
2022/10/09 00:06:12;;;;;;;11.45;4.53;;;;;;;7.21;95.90;102576.34;5052698;28;20040;-34
2022/10/09 00:08:38;;;;;;;10.32;5.10;;;;;;;7.18;95.78;102571.31;5053130;28;20123;-35
2022/10/09 00:11:10;;;;;;;8.00;4.35;;;;;;;7.18;94.90;102574.03;5052849;28;20127;-35
2022/10/09 00:13:36;;;;;;;8.48;4.53;;;;;;;7.13;94.90;102579.91;5052615;28;20070;-34
2022/10/09 00:16:08;;;;;;;7.95;4.13;;;;;;;7.16;95.34;102574.16;5052390;28;20446;-35
2022/10/09 00:18:33;;;;;;;8.13;3.90;;;;;;;7.04;95.08;102561.22;5034124;28;20443;-34
2022/10/09 00:20:59;;;;;;;9.52;4.20;;;;;;;7.01;94.43;102566.91;5052361;28;20029;-35
2022/10/09 00:23:24;;;;;;;9.73;4.03;;;;;;;7.06;95.62;102583.41;5053064;28;20025;-34
2022/10/09 00:25:55;;;;;;;9.87;4.60;;;;;;;7.04;95.61;102585.44;5052294;28;20064;-35
2022/10/09 00:28:23;;;;;;;10.40;4.20;;;;;;;6.99;95.52;102585.09;5052299;28;20086;-34
2022/10/09 00:30:48;;;;;;;6.18;3.97;;;;;;;6.96;95.01;102584.38;5052213;28;20119;-34
2022/10/09 00:33:14;;;;;;;6.78;3.90;;;;;;;6.94;95.17;102570.28;5053039;28;20111;-34
2022/10/09 00:35:39;;;;;;;8.37;4.23;;;;;;;6.97;95.79;102586.06;5052162;28;20025;-35
2022/10/09 00:38:06;;;;;;;8.88;4.30;;;;;;;6.95;96.00;102582.72;5052269;28;20024;-34
2022/10/09 00:40:32;;;;;;;7.50;4.05;;;;;;;6.86;95.87;102581.00;5052480;28;20031;-34
2022/10/09 00:42:58;;;;;;;13.55;4.15;;;;;;;6.87;95.66;102577.31;5052214;28;20385;-34
2022/10/09 00:45:24;;;;;;;8.93;4.60;;;;;;;6.79;96.01;102563.00;5051883;28;20029;-34
2022/10/09 00:47:53;;;;;;;7.63;4.03;;;;;;;6.80;95.93;102568.22;5052406;28;20052;-34
2022/10/09 00:50:23;;;;;;;6.85;3.92;;;;;;;6.86;95.46;102578.31;5052092;28;20025;-34
2022/10/09 00:52:53;;;;;;;8.90;3.95;;;;;;;6.83;95.94;102573.28;5055733;28;20083;-35
2022/10/09 00:55:20;;;;;;;9.48;4.00;;;;;;;6.77;95.96;102565.84;5055689;28;20079;-34
2022/10/09 00:57:45;;;;;;;11.68;4.10;;;;;;;6.82;95.96;102578.81;5055922;28;20039;-35
2022/10/09 01:00:12;;;;;;;6.80;4.50;;;;;;;6.82;95.37;102576.94;5055618;28;20024;-35
2022/10/09 01:02:38;;;;;;;8.27;4.10;;;;;;;6.75;95.92;102570.56;5055916;28;20025;-35
2022/10/09 01:05:05;;;;;;;7.10;3.80;;;;;;;6.75;95.80;102569.72;5055621;28;20095;-34
2022/10/09 01:07:48;;;;;;;7.45;3.72;;;;;;;6.74;96.21;102571.56;5055730;28;20033;-34
2022/10/09 01:10:36;;;;;;;6.35;3.53;;;;;;;6.71;95.52;102566.50;5055597;28;20345;-34
2022/10/09 01:13:17;;;;;;;6.72;3.33;;;;;;;6.63;95.50;102553.03;5056155;28;20112;-34
2022/10/09 01:15:53;;;;;;;6.28;3.00;;;;;;;6.65;95.91;102567.16;5056017;28;20025;-34
2022/10/09 01:18:47;;;;;;;8.70;4.15;;;;;;;6.54;95.79;102541.44;5056349;28;20025;-34
2022/10/09 01:21:44;;;;;;;5.57;3.15;;;;;;;6.65;95.99;102564.47;5055543;28;20091;-34
2022/10/09 01:24:36;;;;;;;7.10;3.22;;;;;;;6.62;95.57;102571.00;4974457;28;20049;-34
2022/10/09 01:27:10;;;;;;;6.00;3.22;;;;;;;6.53;95.57;102560.41;4974383;28;20538;-34
2022/10/09 01:29:49;;;;;;;5.85;2.85;;;;;;;6.41;95.91;102554.47;4974571;28;20081;-34
2022/10/09 01:32:20;;;;;;;5.63;3.67;;;;;;;6.48;95.52;102566.25;4974420;28;20027;-34
2022/10/09 01:34:48;;;;;;;5.85;3.03;;;;;;;6.40;96.16;102547.44;4994062;28;20049;-34
2022/10/09 01:37:17;;;;;;;8.73;3.22;;;;;;;6.38;95.81;102552.94;4993841;28;20120;-34
2022/10/09 01:39:44;;;;;;;5.95;3.20;;;;;;;6.38;95.56;102552.94;4993544;28;20043;-34
2022/10/09 01:42:12;;;;;;;8.73;3.50;;;;;;;6.29;96.08;102543.16;4993978;28;20030;-34
2022/10/09 01:44:38;;;;;;;7.75;3.53;;;;;;;6.34;96.11;102546.19;4993400;28;20491;-35
2022/10/09 01:47:05;;;;;;;8.52;3.40;;;;;;;6.40;95.99;102550.94;4994062;28;20081;-34
2022/10/09 01:49:55;;;;;;;8.73;3.50;;;;;;;6.39;95.74;102548.41;4993362;28;20113;-34
2022/10/09 01:52:24;;;;;;;6.38;3.22;;;;;;;6.33;96.38;102544.53;4993733;28;20030;-35
2022/10/09 01:54:55;;;;;;;6.22;2.97;;;;;;;6.32;96.16;102537.47;4993279;28;20097;-35
2022/10/09 01:57:35;;;;;;;6.85;3.10;;;;;;;6.29;95.74;102528.88;4993457;28;20094;-34
2022/10/09 02:00:05;;;;;;;8.40;2.85;;;;;;;6.33;95.65;102538.31;5030971;28;20040;-34
2022/10/09 02:02:31;;;;;;;6.65;2.97;;;;;;;6.30;95.43;102538.66;5054596;28;20059;-35
2022/10/09 02:04:57;;;;;;;8.65;3.13;;;;;;;6.26;95.95;102532.75;5054964;28;20477;-35
2022/10/09 02:07:24;;;;;;;6.68;2.80;;;;;;;6.26;95.79;102527.38;5054746;28;20434;-34
2022/10/09 02:09:49;;;;;;;8.73;3.80;;;;;;;6.22;95.81;102534.06;5055055;28;20068;-35
2022/10/09 02:12:17;;;;;;;6.30;3.17;;;;;;;6.18;96.02;102525.50;5054952;28;20060;-35
2022/10/09 02:14:42;;;;;;;7.85;3.30;;;;;;;6.11;95.90;102529.84;5054529;28;20107;-34
2022/10/09 02:17:13;;;;;;;6.33;3.23;;;;;;;6.16;96.30;102526.66;5054886;28;20116;-34
2022/10/09 02:19:45;;;;;;;5.72;3.00;;;;;;;6.13;95.52;102522.44;5055112;28;20369;-34
2022/10/09 02:22:20;;;;;;;4.25;2.80;;;;;;;6.12;95.75;102536.03;5054459;28;20036;-34
2022/10/09 02:24:46;;;;;;;6.07;2.75;;;;;;;6.11;96.04;102529.00;5054001;28;20512;-34
2022/10/09 02:27:13;;;;;;;5.93;2.92;;;;;;;6.05;96.09;102524.25;5054706;28;20039;-34
2022/10/09 02:29:41;;;;;;;6.00;3.33;;;;;;;6.01;96.19;102525.59;5054280;28;20025;-34
2022/10/09 02:32:06;;;;;;;8.75;3.40;;;;;;;5.96;96.47;102511.81;5054322;28;20063;-34
2022/10/09 02:34:32;;;;;;;8.10;3.20;;;;;;;5.96;96.42;102511.81;5036332;28;20486;-34
2022/10/09 02:36:57;;;;;;;7.47;3.50;;;;;;;5.96;96.08;102511.81;5054108;28;20461;-34
2022/10/09 02:39:22;;;;;;;6.60;3.30;;;;;;;5.96;96.66;102514.50;5054081;28;20445;-34
2022/10/09 02:41:48;;;;;;;6.90;3.17;;;;;;;5.96;96.62;102506.44;5054079;28;20093;-34
2022/10/09 02:44:13;;;;;;;5.83;3.07;;;;;;;5.93;96.26;102510.25;5054255;28;20029;-34
2022/10/09 02:46:38;;;;;;;5.13;3.07;;;;;;;5.94;96.98;102512.78;5053706;28;20025;-34
2022/10/09 02:49:05;;;;;;;6.30;3.67;;;;;;;5.93;96.28;102507.56;5054107;28;20032;-34
2022/10/09 02:51:30;;;;;;;10.05;4.03;;;;;;;5.88;95.80;102510.72;5053852;28;20056;-34
2022/10/09 02:53:58;;;;;;;9.23;4.10;;;;;;;5.89;96.63;102503.50;5054327;28;20072;-34
2022/10/09 02:56:24;;;;;;;7.45;3.25;;;;;;;5.77;96.51;102494.88;5054101;28;20021;-35
2022/10/09 02:58:50;;;;;;;7.85;3.92;;;;;;;5.83;96.72;102499.59;5054333;28;20075;-34
2022/10/09 03:01:15;;;;;;;6.78;3.58;;;;;;;5.81;96.84;102498.94;5053718;28;20116;-35
2022/10/09 03:03:41;;;;;;;8.37;4.00;;;;;;;5.80;96.86;102505.28;5054120;28;20107;-34
2022/10/09 03:06:11;;;;;;;6.05;3.85;;;;;;;5.72;96.57;102497.19;5053540;28;20159;-34
2022/10/09 03:08:39;;;;;;;6.72;3.60;;;;;;;5.73;96.63;102498.88;5053472;28;20535;-34
2022/10/09 03:11:05;;;;;;;8.48;4.00;;;;;;;5.72;96.59;102502.56;5053302;28;20029;-35
2022/10/09 03:13:31;;;;;;;7.65;3.72;;;;;;;5.71;96.87;102491.97;5053950;28;20033;-34
2022/10/09 03:16:06;;;;;;;;;;;;;;;5.86;96.47;102498.47;5053876;28;20051;-35
2022/10/09 03:18:32;;;;;;;8.45;4.60;;;;;;;5.72;96.50;102501.72;5053647;28;19923;-43
2022/10/09 03:20:57;;;;;;;11.13;5.00;;;;;;;5.66;97.39;102489.75;5053368;28;20029;-34
2022/10/09 03:23:24;;;;;;;6.47;3.77;;;;;;;5.53;97.29;102475.94;5053598;28;20065;-34
2022/10/09 03:26:00;;;;;;;5.57;3.95;;;;;;;5.66;97.38;102497.81;5053148;28;20037;-34
2022/10/09 03:28:27;;;;;;;7.72;4.07;;;;;;;5.59;97.67;102494.09;5035714;28;20049;-34
2022/10/09 03:30:52;;;;;;;7.22;4.13;;;;;;;5.51;98.31;102484.13;5053344;28;20024;-34
2022/10/09 03:33:18;;;;;;;8.53;4.17;;;;;;;5.54;98.32;102478.47;5053555;28;20039;-34
2022/10/09 03:35:45;;;;;;;6.88;4.20;;;;;;;5.57;98.00;102490.75;5034581;28;20358;-34
2022/10/09 03:38:11;;;;;;;10.18;4.50;;;;;;;5.56;98.16;102497.06;5053206;28;20075;-35
2022/10/09 03:40:37;;;;;;;7.07;3.97;;;;;;;5.55;98.04;102490.03;5052994;28;20032;-34
2022/10/09 03:43:02;;;;;;;8.83;3.67;;;;;;;5.46;97.74;102478.41;5053180;28;20021;-34
2022/10/09 03:45:27;;;;;;;7.83;4.20;;;;;;;5.57;97.76;102493.41;5053087;28;20032;-34
2022/10/09 03:47:53;;;;;;;9.03;4.23;;;;;;;5.55;97.48;102490.03;5053301;28;20033;-34
2022/10/09 03:50:18;;;;;;;6.90;3.43;;;;;;;5.45;97.66;102476.72;5053557;28;20028;-34
2022/10/09 03:52:43;;;;;;;7.97;4.23;;;;;;;5.48;98.34;102489.84;5052862;28;20021;-34
2022/10/09 03:55:09;;;;;;;6.33;4.17;;;;;;;5.50;97.79;102495.03;5052700;28;20389;-34
2022/10/09 03:57:34;;;;;;;7.43;4.10;;;;;;;5.46;97.84;102494.50;5052880;28;20488;-34
2022/10/09 03:59:59;;;;;;;6.82;3.75;;;;;;;5.47;98.15;102503.41;5052688;28;20505;-34
2022/10/09 04:02:25;;;;;;;10.00;4.43;;;;;;;5.47;97.77;102501.56;5052652;28;20426;-34
2022/10/09 04:04:50;;;;;;;8.60;4.18;;;;;;;5.43;97.80;102497.50;5052574;28;20056;-34
2022/10/09 04:07:15;;;;;;;7.63;4.13;;;;;;;5.41;97.60;102505.69;5052792;28;20045;-34
2022/10/09 04:09:41;;;;;;;7.20;3.97;;;;;;;5.33;97.72;102494.09;5052211;28;20389;-34
2022/10/09 04:12:06;;;;;;;7.10;3.73;;;;;;;5.36;97.62;102499.97;5053031;28;20029;-34
2022/10/09 04:14:32;;;;;;;6.65;3.85;;;;;;;5.25;97.04;102488.66;5035078;28;20484;-34
2022/10/09 04:16:57;;;;;;;6.57;3.83;;;;;;;5.27;96.03;102495.56;5052346;28;20028;-34
2022/10/09 04:19:22;;;;;;;5.90;3.93;;;;;;;5.25;97.26;102500.22;5052504;28;20025;-34
2022/10/09 04:21:48;;;;;;;6.90;4.43;;;;;;;5.24;97.26;102501.22;5053224;28;20433;-34
2022/10/09 04:24:13;;;;;;;7.50;3.97;;;;;;;5.28;98.11;102501.75;5052442;28;20529;-34
2022/10/09 04:26:38;;;;;;;8.17;4.17;;;;;;;5.23;97.30;102501.38;5054297;28;20036;-34
2022/10/09 04:29:04;;;;;;;6.33;4.00;;;;;;;5.23;97.93;102507.59;5056585;28;20417;-34
2022/10/09 04:31:29;;;;;;;9.03;4.83;;;;;;;5.15;97.30;102489.56;5056523;28;20024;-34
2022/10/09 04:33:55;;;;;;;7.37;4.23;;;;;;;5.19;96.93;102491.97;5056256;28;20024;-34
2022/10/09 04:36:20;;;;;;;6.22;4.05;;;;;;;5.13;97.10;102496.94;5056345;28;20036;-34
2022/10/09 04:38:45;;;;;;;9.47;4.50;;;;;;;5.14;97.69;102493.25;5057144;28;20032;-34
2022/10/09 04:41:12;;;;;;;6.97;4.17;;;;;;;5.10;97.24;102493.72;5056069;28;20651;-34
2022/10/09 04:43:37;;;;;;;7.60;4.80;;;;;;;5.13;97.93;102490.75;5056314;28;20025;-34
2022/10/09 04:46:04;;;;;;;8.47;4.83;;;;;;;5.06;97.45;102484.31;5056453;28;20032;-34
2022/10/09 04:48:30;;;;;;;10.30;4.70;;;;;;;5.06;97.15;102490.50;5056780;28;20365;-34
2022/10/09 04:50:55;;;;;;;9.17;4.27;;;;;;;4.93;97.99;102462.41;5056065;28;20037;-34
2022/10/09 04:53:20;;;;;;;9.23;4.03;;;;;;;4.98;96.27;102487.78;5055924;28;20040;-34
2022/10/09 04:55:45;;;;;;;6.00;4.30;;;;;;;4.96;96.73;102486.22;5056334;28;20025;-34
2022/10/09 04:58:12;;;;;;;7.07;4.40;;;;;;;4.97;97.12;102485.22;5056223;28;20056;-34
2022/10/09 05:00:42;;;;;;;7.55;4.43;;;;;;;4.97;97.44;102477.19;5056025;28;20124;-34
2022/10/09 05:03:09;;;;;;;7.10;4.32;;;;;;;4.93;97.41;102474.00;5056234;28;20385;-34
2022/10/09 05:05:34;;;;;;;7.03;4.20;;;;;;;4.95;97.98;102480.03;5056080;28;20130;-34
2022/10/09 05:07:59;;;;;;;9.07;4.60;;;;;;;5.01;97.73;102481.25;5056342;28;20028;-34
2022/10/09 05:10:25;;;;;;;6.37;4.50;;;;;;;4.95;98.08;102473.81;5055752;28;20090;-34
2022/10/09 05:12:50;;;;;;;8.20;4.90;;;;;;;4.94;97.76;102475.66;5055735;28;20025;-34
2022/10/09 05:15:15;;;;;;;10.73;4.43;;;;;;;4.76;97.45;102448.03;5055680;28;20086;-34
2022/10/09 05:17:41;;;;;;;8.67;4.40;;;;;;;4.95;97.70;102465.78;5055647;28;20104;-34
2022/10/09 05:20:07;;;;;;;7.87;4.73;;;;;;;4.91;97.82;102466.06;5055726;28;20025;-34
2022/10/09 05:22:32;;;;;;;7.68;4.28;;;;;;;4.87;98.05;102450.44;5056044;28;20339;-34
2022/10/09 05:24:57;;;;;;;7.63;4.20;;;;;;;4.91;97.80;102451.84;5037561;28;20045;-34
2022/10/09 05:27:23;;;;;;;12.53;4.77;;;;;;;4.90;97.84;102459.03;5055471;28;20036;-34
2022/10/09 05:29:48;;;;;;;10.80;5.00;;;;;;;4.91;98.04;102460.72;5055391;28;20025;-34
2022/10/09 05:32:13;;;;;;;7.10;4.00;;;;;;;4.83;98.29;102446.38;5037192;28;20045;-34
2022/10/09 05:34:39;;;;;;;9.10;4.83;;;;;;;4.88;98.04;102463.72;5055332;28;20491;-34
2022/10/09 05:37:04;;;;;;;6.27;3.80;;;;;;;4.88;98.40;102461.03;5054598;28;20527;-34
2022/10/09 05:39:31;;;;;;;5.23;4.20;;;;;;;4.86;98.40;102454.97;5054850;28;20029;-34
2022/10/09 05:41:56;;;;;;;8.23;4.10;;;;;;;4.83;98.48;102457.97;5055341;28;20028;-34
2022/10/09 05:44:22;;;;;;;8.82;3.63;;;;;;;4.88;98.28;102463.72;5054830;28;20492;-34
2022/10/09 05:46:47;;;;;;;7.30;4.70;;;;;;;4.73;97.90;102443.78;5055347;28;20480;-34
2022/10/09 05:49:12;;;;;;;5.27;3.90;;;;;;;4.80;98.25;102454.75;5055294;28;20038;-34
2022/10/09 05:51:39;;;;;;;7.73;4.27;;;;;;;4.85;98.85;102461.34;5055267;28;20060;-34
2022/10/09 05:54:05;;;;;;;8.90;4.43;;;;;;;4.85;99.12;102461.34;5055091;28;20053;-34
2022/10/09 05:56:36;;;;;;;8.73;4.05;;;;;;;4.76;98.52;102450.69;5054961;28;20037;-34
2022/10/09 05:59:04;;;;;;;8.13;4.30;;;;;;;4.83;98.78;102462.47;5055225;28;20481;-34
2022/10/09 06:01:32;;;;;;;8.55;4.38;;;;;;;4.77;99.28;102447.84;5054477;28;20032;-34
2022/10/09 06:03:59;;;;;;;9.48;4.70;;;;;;;4.83;99.66;102460.66;5055264;28;20041;-34
2022/10/09 06:06:27;;;;;;;9.50;4.38;;;;;;;4.86;99.72;102467.53;5054694;28;20025;-34
2022/10/09 06:08:53;;;;;;;7.13;4.15;;;;;;;4.84;99.67;102465.03;5055177;28;20033;-34
2022/10/09 06:11:23;;;;;;;10.25;4.82;;;;;;;4.73;99.33;102441.13;5054547;28;20035;-34
2022/10/09 06:13:50;;;;;;;7.30;4.25;;;;;;;4.80;99.51;102460.13;5054208;28;20060;-34
2022/10/09 06:16:16;;;;;;;7.57;3.97;;;;;;;4.87;99.69;102469.22;5054485;28;20040;-34
2022/10/09 06:18:45;;;;;;;8.48;4.57;;;;;;;4.84;99.86;102465.03;5054765;28;20029;-34
2022/10/09 06:21:10;;;;;;;6.60;4.30;;;;;;;4.87;99.84;102469.22;5054323;28;20032;-34
2022/10/09 06:23:36;;;;;;;7.95;5.25;;;;;;;4.90;100.00;102472.44;5054702;28;20029;-34
2022/10/09 06:26:05;;;;;;;11.13;6.33;;;;;;;4.94;100.00;102467.63;5054358;28;20031;-34
2022/10/09 06:28:32;;;;;;;9.63;5.35;;;;;;;4.95;100.00;102473.81;5054277;28;20029;-34
2022/10/09 06:31:10;;;;;;;7.75;5.15;;;;;;;4.95;100.00;102473.81;5054124;28;20113;-34
2022/10/09 06:33:37;;;;;;;9.43;5.53;;;;;;;4.93;100.00;102474.00;5054575;28;20039;-34
2022/10/09 06:36:05;;;;;;;8.80;5.60;;;;;;;4.93;100.00;102457.91;5054065;28;20040;-33
2022/10/09 06:38:33;;;;;;;7.07;4.85;;;;;;;5.01;100.00;102476.72;5054265;28;20033;-34
2022/10/09 06:41:02;;;;;;;5.95;4.45;;;;;;;4.99;100.00;102456.44;5054334;28;20033;-34
2022/10/09 06:43:28;;;;;;;7.32;4.85;;;;;;;5.10;100.00;102477.63;5054301;28;20029;-34
2022/10/09 06:45:53;;;;;;;8.05;4.50;;;;;;;5.10;100.00;102474.94;5053975;28;20529;-34
2022/10/09 06:48:19;;;;;;;7.60;4.67;;;;;;;5.04;100.00;102451.44;5053772;28;20033;-34
2022/10/09 06:50:44;;;;;;;7.83;4.90;;;;;;;5.17;100.00;102473.31;5053599;28;20064;-33
2022/10/09 06:53:09;;;;;;;7.37;4.60;;;;;;;5.20;100.00;102475.69;5054203;28;21211;-34
2022/10/09 06:55:35;;;;;;;8.90;4.13;;;;;;;5.22;100.00;102473.72;5054365;28;20108;-33
2022/10/09 06:58:00;;;;;;;5.23;4.47;;;;;;;5.23;100.00;102470.03;5053734;28;20183;-34
2022/10/09 07:00:25;;;;;;;10.53;4.90;;;;;;;5.22;100.00;102463.00;5053413;28;20047;-34
2022/10/09 07:02:51;;;;;;;10.77;5.10;;;;;;;5.37;100.00;102472.16;5053453;28;20029;-34
2022/10/09 07:05:16;;;;;;;8.77;4.90;;;;;;;5.33;100.00;102469.94;5053467;28;20446;-34
2022/10/09 07:07:42;;;;;;;9.03;4.70;;;;;;;5.52;100.00;102466.22;5035530;28;20056;-34
2022/10/09 07:10:08;;;;;;;8.07;4.72;;;;;;;5.68;100.00;102466.31;5053188;28;20385;-34
2022/10/09 07:12:35;;;;;;;8.82;4.97;;;;;;;5.74;100.00;102460.28;5053906;28;20029;-34
2022/10/09 07:15:00;;;;;;;10.13;5.80;;;;;;;5.92;100.00;102471.84;5053321;28;20025;-34
2022/10/09 07:17:26;;;;;;;7.83;5.60;;;;;;;6.02;100.00;102470.88;5053350;28;20032;-34
2022/10/09 07:19:51;;;;;;;11.23;5.78;;;;;;;6.01;100.00;102455.78;5053345;28;20032;-34
2022/10/09 07:22:17;;;;;;;8.10;5.50;;;;;;;6.11;100.00;102469.91;5053038;28;20111;-34
2022/10/09 07:24:42;;;;;;;9.23;5.70;;;;;;;6.23;100.00;102473.97;5053415;28;20103;-34
2022/10/09 07:27:07;;;;;;;9.20;6.07;;;;;;;6.32;100.00;102472.16;5053378;28;20044;-35
2022/10/09 07:29:33;;;;;;;10.07;5.53;;;;;;;6.40;100.00;102464.97;5052832;28;20480;-34
2022/10/09 07:31:58;;;;;;;8.57;5.30;;;;;;;6.49;100.00;102464.97;5053078;28;20033;-34
2022/10/09 07:34:23;;;;;;;9.97;5.30;;;;;;;6.61;100.00;102469.03;5053603;28;20151;-34
2022/10/09 07:36:49;;;;;;;9.52;5.10;;;;;;;6.53;100.00;102455.56;5053141;28;20024;-34
2022/10/09 07:39:17;;;;;;;12.13;5.77;;;;;;;6.75;100.00;102467.56;5052787;28;20060;-34
2022/10/09 07:41:43;;;;;;;12.98;6.75;;;;;;;6.86;100.00;102470.75;5052752;28;20021;-34
2022/10/09 07:44:09;;;;;;;9.18;5.13;;;;;;;6.96;100.00;102470.59;5052626;28;20117;-34
2022/10/09 07:46:34;;;;;;;12.70;6.15;;;;;;;7.06;100.00;102467.72;5053050;28;20040;-34
2022/10/09 07:49:00;;;;;;;12.90;5.93;;;;;;;7.15;100.00;102472.94;5053058;28;20102;-34
2022/10/09 07:51:27;;;;;;;10.07;5.82;;;;;;;7.20;100.00;102456.28;5052670;28;20025;-34
2022/10/09 07:53:53;;;;;;;7.78;4.97;;;;;;;7.35;100.00;102473.44;5053457;28;20041;-34
2022/10/09 07:56:21;;;;;;;10.20;5.40;;;;;;;7.44;100.00;102461.66;5052904;28;20060;-34
2022/10/09 07:58:54;;;;;;;9.68;5.82;;;;;;;7.49;100.00;102467.34;5053323;28;20047;-34
2022/10/09 08:01:21;;;;;;;11.30;5.70;;;;;;;7.55;100.00;102460.44;5051583;28;20029;-34
2022/10/09 08:03:47;;;;;;;9.43;5.47;;;;;;;7.65;100.00;102466.47;5052764;28;20079;-34
2022/10/09 08:06:12;;;;;;;11.45;6.03;;;;;;;7.73;100.00;102462.94;5053002;28;20033;-34
2022/10/09 08:08:37;;;;;;;8.90;6.07;;;;;;;7.75;100.00;102448.25;5053077;28;20045;-35
2022/10/09 08:11:11;;;;;;;8.50;5.83;;;;;;;7.90;100.00;102458.31;5052661;28;20021;-35
2022/10/09 08:13:37;;;;;;;10.82;5.82;;;;;;;7.93;100.00;102437.25;5052657;28;20114;-35
2022/10/09 08:16:03;;;;;;;;;;;;;;;8.11;100.00;102449.66;5052806;28;20048;-35
2022/10/09 08:18:28;;;;;;;9.27;5.28;;;;;;;8.19;100.00;102442.34;5052873;28;19913;-35
2022/10/09 08:20:58;;;;;;;7.80;4.93;;;;;;;8.32;100.00;102449.88;5052519;28;20087;-35
2022/10/09 08:23:24;;;;;;;10.75;5.70;;;;;;;8.41;100.00;102446.16;5052785;28;20029;-35
2022/10/09 08:25:49;;;;;;;9.67;5.57;;;;;;;8.52;100.00;102440.34;5052975;28;20356;-35
2022/10/09 08:28:15;;;;;;;10.83;6.10;;;;;;;8.65;100.00;102442.47;5052690;28;20378;-35
2022/10/09 08:30:40;;;;;;;12.07;5.70;;;;;;;8.79;100.00;102443.56;5052653;28;20059;-35
2022/10/09 08:33:06;;;;;;;7.93;5.43;;;;;;;8.86;100.00;102428.31;5052572;28;20377;-35
2022/10/09 08:35:31;;;;;;;10.95;6.05;;;;;;;8.90;100.00;102426.94;5053110;28;20453;-35
2022/10/09 08:37:56;;;;;;;9.17;5.60;;;;;;;9.08;100.00;102428.44;5052589;28;20061;-35
2022/10/09 08:40:33;;;;;;;10.80;6.07;;;;;;;9.16;99.86;102429.22;5052031;28;20426;-35
2022/10/09 08:43:05;;;;;;;;;;;;;;;9.30;100.00;102430.28;5052721;28;20032;-35
2022/10/09 08:45:33;;;;;;;12.57;5.82;;;;;;;9.40;100.00;102425.44;5052534;28;19909;-35
2022/10/09 08:48:05;;;;;;;11.05;5.72;;;;;;;9.43;99.11;102408.06;5052062;28;20060;-35
2022/10/09 08:50:37;;;;;;;14.15;5.40;;;;;;;9.65;97.82;102417.06;5052015;28;20109;-35
2022/10/09 08:53:12;;;;;;;8.70;5.50;;;;;;;9.72;97.40;102410.75;5052561;28;20029;-35
2022/10/09 08:55:46;;;;;;;10.30;5.72;;;;;;;9.88;96.38;102412.41;5051789;28;20033;-35
2022/10/09 08:58:19;;;;;;;11.32;5.45;;;;;;;9.99;95.39;102414.63;5052605;28;20031;-35
2022/10/09 09:01:07;;;;;;;12.15;6.10;;;;;;;10.12;95.31;102422.06;5051902;28;20022;-35
2022/10/09 09:03:42;;;;;;;11.43;5.15;;;;;;;10.23;95.12;102410.75;4971191;28;20171;-35
2022/10/09 09:06:18;;;;;;;10.27;4.95;;;;;;;10.32;94.40;102398.81;4971330;28;20090;-35
2022/10/09 09:08:49;;;;;;;11.35;4.95;;;;;;;10.48;93.14;102399.59;4971538;28;20031;-35
2022/10/09 09:11:45;;;;;;;11.93;4.97;;;;;;;10.63;92.26;102397.69;4971025;28;20043;-35
2022/10/09 09:14:23;;;;;;;7.70;4.43;;;;;;;10.76;91.32;102394.28;4974858;28;20047;-35
2022/10/09 09:17:06;;;;;;;9.70;4.60;;;;;;;10.89;92.11;102394.41;4974726;28;20031;-35
2022/10/09 09:19:56;;;;;;;9.77;4.30;;;;;;;11.04;90.19;102389.72;4975064;28;20038;-35
2022/10/09 09:22:23;;;;;;;11.05;4.55;;;;;;;11.13;88.59;102389.59;4974638;28;20113;-35
2022/10/09 09:24:54;;;;;;;7.05;3.80;;;;;;;11.28;88.08;102379.50;4974904;28;20039;-35
2022/10/09 09:27:32;;;;;;;6.93;3.80;;;;;;;11.34;85.93;102373.28;4974515;28;20102;-35
2022/10/09 09:30:00;;;;;;;10.05;3.60;;;;;;;11.52;84.65;102375.47;4974583;28;20466;-35
2022/10/09 09:32:28;;;;;;;7.88;3.90;;;;;;;11.63;85.21;102369.47;4974624;28;20105;-35
2022/10/09 09:35:05;;;;;;;7.57;3.47;;;;;;;11.77;84.88;102360.38;4974342;28;20074;-35
2022/10/09 09:37:30;;;;;;;7.15;3.22;;;;;;;11.85;83.87;102351.25;4974669;28;20138;-35
2022/10/09 09:39:56;;;;;;;13.97;5.03;;;;;;;12.08;84.10;102351.75;4991106;28;20466;-35
2022/10/09 09:42:21;;;;;;;10.80;3.95;;;;;;;12.18;82.37;102340.50;5055006;28;20303;-35
2022/10/09 09:45:01;;;;;;;5.80;3.05;;;;;;;12.25;81.15;102343.22;5055269;28;20537;-35
2022/10/09 09:47:34;;;;;;;6.68;3.25;;;;;;;12.36;82.03;102348.06;5055344;28;20044;-35
2022/10/09 09:50:04;;;;;;;14.48;4.07;;;;;;;12.48;80.46;102338.25;5055502;28;20370;-35
2022/10/09 09:52:34;;;;;;;6.85;3.47;;;;;;;12.51;79.34;102329.72;5055447;28;20419;-35
2022/10/09 09:55:00;;;;;;;9.85;3.67;;;;;;;12.62;78.02;102328.25;5056111;28;20052;-35
2022/10/09 09:57:41;;;;;;;6.03;3.20;;;;;;;12.69;78.65;102325.53;5055291;28;20400;-35
2022/10/09 10:00:21;;;;;;;7.25;3.53;;;;;;;12.83;78.57;102329.91;5054795;28;20041;-35
2022/10/09 10:02:46;;;;;;;6.80;3.17;;;;;;;12.91;77.18;102329.69;5054971;28;20476;-35
2022/10/09 10:05:35;;;;;;;8.20;3.50;;;;;;;13.01;78.68;102316.53;5054946;28;20044;-35
2022/10/09 10:08:15;;;;;;;6.57;3.20;;;;;;;13.04;78.05;102313.41;5055446;28;20075;-35
2022/10/09 10:10:46;;;;;;;5.78;3.20;;;;;;;13.00;77.19;102295.84;5054900;28;20075;-35
2022/10/09 10:13:16;;;;;;;5.63;3.25;;;;;;;13.19;74.85;102312.31;5055633;28;20032;-35
2022/10/09 10:15:54;;;;;;;6.95;3.60;;;;;;;13.33;75.72;102308.56;5036694;28;20496;-35
2022/10/09 10:18:22;;;;;;;8.88;3.25;;;;;;;13.41;74.50;102313.75;5055359;28;20116;-35
2022/10/09 10:20:54;;;;;;;9.27;4.00;;;;;;;13.48;75.61;102306.41;5054860;28;20117;-35
2022/10/09 10:23:41;;;;;;;10.23;3.78;;;;;;;13.62;73.79;102301.75;5054780;28;20462;-35
2022/10/09 10:26:36;;;;;;;5.70;3.28;;;;;;;13.60;73.63;102301.97;5054927;28;20025;-35
2022/10/09 10:29:04;;;;;;;9.20;4.10;;;;;;;13.68;72.43;102291.91;4966361;28;20057;-35
2022/10/09 10:31:57;;;;;;;7.38;3.33;;;;;;;13.86;73.17;102297.47;4973632;28;20495;-35
2022/10/09 10:34:34;;;;;;;7.70;2.88;;;;;;;13.91;71.93;102292.22;4974156;28;20547;-35
2022/10/09 10:37:12;;;;;;;6.30;2.90;;;;;;;13.99;71.96;102286.50;4957152;28;20031;-36
2022/10/09 10:39:48;;;;;;;7.95;3.05;;;;;;;14.06;72.79;102284.59;4974085;28;20428;-35
2022/10/09 10:43:01;;;;;;;5.50;2.80;;;;;;;14.24;71.80;102269.38;4973341;28;20043;-35
2022/10/09 10:45:43;;;;;;;5.85;2.97;;;;;;;14.27;71.39;102274.38;4954611;29;20051;-35
2022/10/09 10:48:18;;;;;;;7.68;2.78;;;;;;;14.27;71.16;102258.06;4954347;29;20063;-35
2022/10/09 10:51:29;;;;;;;7.20;2.70;;;;;;;14.48;69.80;102270.47;4954084;29;20452;-35
2022/10/09 10:54:41;;;;;;;4.72;2.60;;;;;;;14.58;69.70;102255.31;4934736;29;20071;-35
2022/10/09 10:57:15;;;;;;;6.50;2.67;;;;;;;14.71;69.44;102248.91;4897265;29;20045;-36
2022/10/09 10:59:53;;;;;;;8.13;3.10;;;;;;;14.77;69.23;102244.44;4896844;29;20045;-35
2022/10/09 11:02:43;;;;;;;7.97;2.60;;;;;;;14.86;66.88;102245.81;4897146;29;20049;-35
2022/10/09 11:05:46;;;;;;;8.18;2.50;;;;;;;14.91;67.28;102240.53;4896637;29;20477;-35
2022/10/09 11:08:48;;;;;;;5.80;2.13;;;;;;;14.97;67.76;102242.34;4897050;29;20115;-35
2022/10/09 11:11:21;;;;;;;6.93;2.92;;;;;;;15.00;66.19;102225.56;4896945;29;20048;-35
2022/10/09 11:14:03;;;;;;;7.10;2.85;;;;;;;15.05;67.00;102217.53;4896663;29;20107;-36
2022/10/09 11:16:35;;;;;;;7.07;2.47;;;;;;;15.20;64.59;102228.88;4896273;29;20032;-36
2022/10/09 11:19:24;;;;;;;7.38;2.47;;;;;;;15.15;65.65;102217.84;4896777;29;20040;-35
2022/10/09 11:21:56;;;;;;;5.93;2.22;;;;;;;15.26;65.77;102216.22;4920293;29;20052;-35
2022/10/09 11:24:46;;;;;;;6.35;2.20;;;;;;;15.31;66.18;102210.09;4934337;29;20040;-36
2022/10/09 11:27:34;;;;;;;4.38;2.30;;;;;;;15.27;66.98;102200.72;4934147;29;20399;-35
2022/10/09 11:30:07;;;;;;;5.45;2.22;;;;;;;15.40;65.08;102201.38;4946293;28;20086;-36
2022/10/09 11:32:39;;;;;;;6.40;2.03;;;;;;;15.45;62.66;102201.50;4989571;28;20189;-35
2022/10/09 11:35:10;;;;;;;7.85;1.48;;;;;;;15.55;64.02;102197.41;5053480;28;20031;-35
2022/10/09 11:37:38;;;;;;;6.68;2.10;;;;;;;15.56;63.66;102193.59;5053244;28;20071;-36
2022/10/09 11:40:27;;;;;;;6.05;2.20;;;;;;;15.47;61.24;102179.50;5053249;28;20103;-36
2022/10/09 11:43:23;;;;;;;7.53;2.45;;;;;;;15.60;63.43;102189.38;5052999;28;20033;-35